createdAt,value
2022-10-17T00:01:04.671Z,99.90
2022-10-17T00:03:32.979Z,99.90
2022-10-17T00:06:07.513Z,99.90
2022-10-17T00:08:35.668Z,99.90
2022-10-17T00:11:05.917Z,99.90
2022-10-17T00:13:36.285Z,99.90
2022-10-17T00:16:04.676Z,99.90
2022-10-17T00:18:32.689Z,99.90
2022-10-17T00:21:00.737Z,99.90
2022-10-17T00:23:30.350Z,99.90
2022-10-17T00:26:02.354Z,99.90
2022-10-17T00:28:30.778Z,99.90
2022-10-17T00:31:01.870Z,99.90
2022-10-17T00:33:30.878Z,99.90
2022-10-17T00:36:09.954Z,99.90
2022-10-17T00:38:38.489Z,99.90
2022-10-17T00:41:07.570Z,99.90
2022-10-17T00:43:55.107Z,99.90
2022-10-17T00:46:29.461Z,99.90
2022-10-17T00:49:00.117Z,99.90
2022-10-17T00:51:33.850Z,99.90
2022-10-17T00:54:03.880Z,99.90
2022-10-17T00:56:32.944Z,99.90
2022-10-17T00:59:01.272Z,99.90
2022-10-17T01:01:30.909Z,99.90
2022-10-17T01:03:59.152Z,99.90
2022-10-17T01:06:27.797Z,99.90
2022-10-17T01:08:56.710Z,99.90
2022-10-17T01:11:34.525Z,99.90
2022-10-17T01:14:10.830Z,99.90
2022-10-17T01:16:52.038Z,99.90
2022-10-17T01:19:47.776Z,99.90
2022-10-17T01:22:21.058Z,99.90
2022-10-17T01:25:02.545Z,99.90
2022-10-17T01:27:48.569Z,99.90
2022-10-17T01:30:45.329Z,99.90
2022-10-17T01:33:20.593Z,99.90
2022-10-17T01:35:55.965Z,99.90
2022-10-17T01:38:28.011Z,99.90
2022-10-17T01:41:02.973Z,99.90
2022-10-17T01:43:35.319Z,99.90
2022-10-17T01:46:11.293Z,99.90
2022-10-17T01:48:41.415Z,99.90
2022-10-17T01:51:13.439Z,99.90
2022-10-17T01:53:47.725Z,99.90
2022-10-17T01:56:17.073Z,99.90
2022-10-17T01:58:50.065Z,99.90
2022-10-17T02:01:20.876Z,99.90
2022-10-17T02:03:52.158Z,99.90
2022-10-17T02:06:20.320Z,99.90
2022-10-17T02:08:50.163Z,99.90
2022-10-17T02:11:20.533Z,99.90
2022-10-17T02:14:14.316Z,99.90
2022-10-17T02:16:50.797Z,99.90
2022-10-17T02:19:36.723Z,99.90
2022-10-17T02:22:15.727Z,99.90
2022-10-17T02:24:51.083Z,99.90
2022-10-17T02:27:33.661Z,99.90
2022-10-17T02:30:08.046Z,99.90
2022-10-17T02:32:46.726Z,99.90
2022-10-17T02:35:20.741Z,99.90
2022-10-17T02:37:49.859Z,99.90
2022-10-17T02:40:22.002Z,99.90
2022-10-17T02:42:52.449Z,99.90
2022-10-17T02:45:20.791Z,99.90
2022-10-17T02:47:56.758Z,99.90
2022-10-17T02:50:33.289Z,99.90
2022-10-17T02:53:06.958Z,99.90
2022-10-17T02:55:38.564Z,99.90
2022-10-17T02:58:11.898Z,99.90
2022-10-17T03:00:41.779Z,99.90
2022-10-17T03:03:22.620Z,99.90
2022-10-17T03:05:50.881Z,99.90
2022-10-17T03:08:19.221Z,99.90
2022-10-17T03:10:47.262Z,99.90
2022-10-17T03:13:15.502Z,99.90
2022-10-17T03:15:43.616Z,99.90
2022-10-17T03:18:11.882Z,99.90
2022-10-17T03:20:41.322Z,99.90
2022-10-17T03:23:09.604Z,99.90
2022-10-17T03:25:37.669Z,99.90
2022-10-17T03:28:06.222Z,99.90
2022-10-17T03:30:35.045Z,99.90
2022-10-17T03:33:03.053Z,99.90
2022-10-17T03:35:31.347Z,99.90
2022-10-17T03:38:00.778Z,99.90
2022-10-17T03:40:28.808Z,99.90
2022-10-17T03:42:57.354Z,99.90
2022-10-17T03:45:25.408Z,99.90
2022-10-17T03:47:53.803Z,99.90
2022-10-17T03:50:21.896Z,99.90
2022-10-17T03:52:50.716Z,99.90
2022-10-17T03:55:20.177Z,99.90
2022-10-17T03:57:48.219Z,99.90
2022-10-17T04:00:17.131Z,99.90
2022-10-17T04:02:45.709Z,99.90
2022-10-17T04:05:13.753Z,99.90
2022-10-17T04:07:41.800Z,99.90
2022-10-17T04:10:10.918Z,99.90
2022-10-17T04:12:40.554Z,99.90
2022-10-17T04:15:09.799Z,99.90
2022-10-17T04:17:38.331Z,99.90
2022-10-17T04:20:07.362Z,99.90
2022-10-17T04:22:35.545Z,99.90
2022-10-17T04:25:04.428Z,99.90
2022-10-17T04:27:32.531Z,99.90
2022-10-17T04:30:02.087Z,99.90
2022-10-17T04:32:30.228Z,99.90
2022-10-17T04:34:58.467Z,99.90
2022-10-17T04:37:26.526Z,99.90
2022-10-17T04:39:54.717Z,99.90
2022-10-17T04:42:22.792Z,99.90
2022-10-17T04:44:50.878Z,99.90
2022-10-17T04:47:20.422Z,99.90
2022-10-17T04:49:49.031Z,99.90
2022-10-17T04:52:17.365Z,99.90
2022-10-17T04:54:45.402Z,99.90
2022-10-17T04:57:13.638Z,99.90
2022-10-17T04:59:41.701Z,99.90
2022-10-17T05:02:09.780Z,99.90
2022-10-17T05:04:39.295Z,99.90
2022-10-17T05:07:07.148Z,99.90
2022-10-17T05:09:35.288Z,99.90
2022-10-17T05:12:05.417Z,99.90
2022-10-17T05:14:36.099Z,99.90
2022-10-17T05:17:04.198Z,99.90
2022-10-17T05:19:32.200Z,99.90
2022-10-17T05:22:01.664Z,99.90
2022-10-17T05:24:29.823Z,99.90
2022-10-17T05:26:57.884Z,99.90
2022-10-17T05:29:25.957Z,99.90
2022-10-17T05:31:54.038Z,99.90
2022-10-17T05:34:22.109Z,99.90
2022-10-17T05:36:50.343Z,99.90
2022-10-17T05:39:20.143Z,99.90
2022-10-17T05:41:48.626Z,99.90
2022-10-17T05:44:16.807Z,99.90
2022-10-17T05:46:45.135Z,99.90
2022-10-17T05:49:19.614Z,99.90
2022-10-17T05:51:53.521Z,99.90
2022-10-17T05:54:22.957Z,99.90
2022-10-17T05:56:53.055Z,99.90
2022-10-17T05:59:21.705Z,99.90
2022-10-17T06:01:49.888Z,99.90
2022-10-17T06:04:18.025Z,99.90
2022-10-17T06:06:46.109Z,99.90
2022-10-17T06:09:14.772Z,99.90
2022-10-17T06:11:44.201Z,99.90
2022-10-17T06:14:12.275Z,99.90
2022-10-17T06:16:40.349Z,99.90
2022-10-17T06:19:08.502Z,99.90
2022-10-17T06:21:38.612Z,99.90
2022-10-17T06:24:06.771Z,99.90
2022-10-17T06:26:34.860Z,99.90
2022-10-17T06:29:04.498Z,99.90
2022-10-17T06:31:32.666Z,99.90
2022-10-17T06:34:00.738Z,99.90
2022-10-17T06:36:28.876Z,99.90
2022-10-17T06:38:56.965Z,99.90
2022-10-17T06:41:25.338Z,99.90
2022-10-17T06:43:53.609Z,99.90
2022-10-17T06:46:25.437Z,99.90
2022-10-17T06:48:53.613Z,99.90
2022-10-17T06:51:21.669Z,99.90
2022-10-17T06:53:49.699Z,99.90
2022-10-17T06:56:19.376Z,99.90
2022-10-17T06:58:49.377Z,99.90
2022-10-17T07:01:18.492Z,99.90
2022-10-17T07:03:49.706Z,99.90
2022-10-17T07:06:18.027Z,99.90
2022-10-17T07:08:47.009Z,99.90
2022-10-17T07:11:17.149Z,99.90
2022-10-17T07:13:45.743Z,99.90
2022-10-17T07:16:14.590Z,99.90
2022-10-17T07:18:43.025Z,99.90
2022-10-17T07:21:12.422Z,99.90
2022-10-17T07:23:41.610Z,99.90
2022-10-17T07:26:11.775Z,99.90
2022-10-17T07:28:41.853Z,99.90
2022-10-17T07:31:14.988Z,99.90
2022-10-17T07:33:43.552Z,99.90
2022-10-17T07:36:13.741Z,99.90
2022-10-17T07:38:42.354Z,99.90
2022-10-17T07:41:13.119Z,99.90
2022-10-17T07:43:43.033Z,99.90
2022-10-17T07:46:12.409Z,97.00
2022-10-17T07:48:41.368Z,97.80
2022-10-17T07:51:11.822Z,97.50
2022-10-17T07:53:42.752Z,97.70
2022-10-17T07:56:13.337Z,98.40
2022-10-17T07:58:41.424Z,97.30
2022-10-17T08:01:15.506Z,97.00
2022-10-17T08:03:45.835Z,96.70
2022-10-17T08:06:15.717Z,96.10
2022-10-17T08:08:44.305Z,95.60
2022-10-17T08:11:14.146Z,95.70
2022-10-17T08:13:42.858Z,94.30
2022-10-17T08:16:12.881Z,96.60
2022-10-17T08:18:42.723Z,95.70
2022-10-17T08:21:11.250Z,96.40
2022-10-17T08:23:40.973Z,96.70
2022-10-17T08:26:10.885Z,96.70
2022-10-17T08:28:40.140Z,95.60
2022-10-17T08:31:10.534Z,96.00
2022-10-17T08:33:39.377Z,92.40
2022-10-17T08:36:08.555Z,90.70
2022-10-17T08:38:43.193Z,87.80
2022-10-17T08:41:20.781Z,85.80
2022-10-17T08:44:02.143Z,84.60
2022-10-17T08:46:33.658Z,87.00
2022-10-17T08:49:04.510Z,81.20
2022-10-17T08:51:37.856Z,84.90
2022-10-17T08:54:14.082Z,80.90
2022-10-17T08:56:49.567Z,77.40
2022-10-17T08:59:22.676Z,79.80
2022-10-17T09:01:58.365Z,68.30
2022-10-17T09:04:46.834Z,64.40
2022-10-17T09:07:21.202Z,74.00
2022-10-17T09:10:01.175Z,73.50
2022-10-17T09:12:41.606Z,71.00
2022-10-17T09:15:39.726Z,67.00
2022-10-17T09:18:15.879Z,66.90
2022-10-17T09:20:51.667Z,69.50
2022-10-17T09:23:23.668Z,67.90
2022-10-17T09:25:56.254Z,66.40
2022-10-17T09:28:31.843Z,61.80
2022-10-17T09:31:03.190Z,58.90
2022-10-17T09:33:53.429Z,57.90
2022-10-17T09:36:25.368Z,60.40
2022-10-17T09:38:55.464Z,59.20
2022-10-17T09:44:24.626Z,60.50
2022-10-17T09:47:11.192Z,64.70
2022-10-17T09:49:41.077Z,53.30
2022-10-17T09:52:15.001Z,55.90
2022-10-17T09:54:46.125Z,47.10
2022-10-17T09:57:15.844Z,48.60
2022-10-17T09:59:47.181Z,50.80
2022-10-17T10:02:22.045Z,43.80
2022-10-17T10:05:07.428Z,44.40
2022-10-17T10:07:38.138Z,47.90
2022-10-17T10:10:08.813Z,41.80
2022-10-17T10:12:38.788Z,46.30
2022-10-17T10:18:01.826Z,41.50
2022-10-17T10:20:34.117Z,32.60
2022-10-17T10:23:13.598Z,26.60
2022-10-17T10:25:50.869Z,40.60
2022-10-17T10:28:19.298Z,30.90
2022-10-17T10:30:51.108Z,36.50
2022-10-17T10:33:23.259Z,36.70
2022-10-17T10:35:58.485Z,39.60
2022-10-17T10:38:26.870Z,35.90
2022-10-17T10:40:57.143Z,33.10
2022-10-17T10:43:36.937Z,36.10
2022-10-17T10:46:07.192Z,35.80
2022-10-17T10:48:38.028Z,27.40
2022-10-17T10:51:13.492Z,27.10
2022-10-17T10:53:48.359Z,12.70
2022-10-17T10:56:19.847Z,21.40
2022-10-17T10:58:54.650Z,14.80
2022-10-17T11:01:30.860Z,15.80
2022-10-17T11:04:14.479Z,10.00
2022-10-17T11:06:45.300Z,15.70
2022-10-17T11:09:24.482Z,6.30
2022-10-17T11:11:59.405Z,1.00
2022-10-17T11:14:38.114Z,1.00
2022-10-17T11:17:14.540Z,2.60
2022-10-17T11:19:49.790Z,1.00
2022-10-17T11:22:28.181Z,1.00
2022-10-17T11:25:00.794Z,1.00
2022-10-17T11:27:30.593Z,1.00
2022-10-17T11:29:59.507Z,1.00
2022-10-17T11:32:32.705Z,1.00
2022-10-17T11:35:06.726Z,1.00
2022-10-17T11:37:40.629Z,1.00
2022-10-17T11:40:19.205Z,1.00
2022-10-17T11:43:00.223Z,1.00
2022-10-17T11:45:31.868Z,1.00
2022-10-17T11:48:05.264Z,1.00
2022-10-17T11:53:28.320Z,1.00
2022-10-17T11:55:59.297Z,1.00
2022-10-17T11:58:38.551Z,1.00
2022-10-17T12:01:16.302Z,1.00
2022-10-17T12:04:06.339Z,1.00
2022-10-17T12:06:49.903Z,1.00
2022-10-17T12:09:26.067Z,1.00
2022-10-17T12:11:56.297Z,1.00
2022-10-17T12:14:40.666Z,1.00
2022-10-17T12:17:34.790Z,1.00
2022-10-17T12:20:28.723Z,1.00
2022-10-17T12:23:01.955Z,1.00
2022-10-17T12:25:33.589Z,1.00
2022-10-17T12:28:16.973Z,1.00
2022-10-17T12:30:53.538Z,1.00
2022-10-17T12:33:23.836Z,1.00
2022-10-17T12:36:13.372Z,1.00
2022-10-17T12:38:45.714Z,1.00
2022-10-17T12:41:15.980Z,1.00
2022-10-17T12:43:53.483Z,1.00
2022-10-17T12:46:57.423Z,1.00
2022-10-17T12:49:52.024Z,1.00
2022-10-17T12:52:24.981Z,1.00
2022-10-17T12:55:16.523Z,1.00
2022-10-17T12:57:52.352Z,1.00
2022-10-17T13:00:30.185Z,1.00
2022-10-17T13:03:05.269Z,1.00
2022-10-17T13:05:36.980Z,1.00
2022-10-17T13:08:07.884Z,1.00
2022-10-17T13:10:43.013Z,1.00
2022-10-17T13:13:17.465Z,1.00
2022-10-17T13:15:47.989Z,1.00
2022-10-17T13:18:21.845Z,1.00
2022-10-17T13:20:58.010Z,1.00
2022-10-17T13:23:27.039Z,1.00
2022-10-17T13:26:16.122Z,1.00
2022-10-17T13:28:44.438Z,1.00
2022-10-17T13:31:33.138Z,1.00
2022-10-17T13:34:02.976Z,1.00
2022-10-17T13:36:32.802Z,1.00
2022-10-17T13:39:07.618Z,1.00
2022-10-17T13:41:38.903Z,1.00
2022-10-17T13:44:14.742Z,1.00
2022-10-17T13:46:43.923Z,1.00
2022-10-17T13:49:18.959Z,1.00
2022-10-17T13:51:49.597Z,1.00
2022-10-17T13:54:40.176Z,1.00
2022-10-17T13:57:21.476Z,1.00
2022-10-17T13:59:52.513Z,1.00
2022-10-17T14:02:23.651Z,1.00
2022-10-17T14:05:16.721Z,1.00
2022-10-17T14:08:10.583Z,1.00
2022-10-17T14:10:41.228Z,1.00
2022-10-17T14:13:21.979Z,1.00
2022-10-17T14:15:51.051Z,1.00
2022-10-17T14:18:21.883Z,1.00
2022-10-17T14:21:32.118Z,1.00
2022-10-17T14:23:39.607Z,1.00
2022-10-17T14:26:12.627Z,1.00
2022-10-17T14:28:44.535Z,1.00
2022-10-17T14:31:25.428Z,1.00
2022-10-17T14:33:54.662Z,1.00
2022-10-17T14:36:32.484Z,1.00
2022-10-17T14:39:01.875Z,1.00
2022-10-17T14:41:48.607Z,1.00
2022-10-17T14:44:30.128Z,1.00
2022-10-17T14:47:03.435Z,1.00
2022-10-17T14:49:39.059Z,1.00
2022-10-17T14:52:27.762Z,1.00
2022-10-17T14:54:56.377Z,1.00
2022-10-17T14:57:27.659Z,1.00
2022-10-17T14:59:58.062Z,1.00
2022-10-17T15:02:27.388Z,1.00
2022-10-17T15:04:55.828Z,1.00
2022-10-17T15:07:24.577Z,1.00
2022-10-17T15:09:54.402Z,1.00
2022-10-17T15:12:24.771Z,1.00
2022-10-17T15:14:53.460Z,1.00
2022-10-17T15:17:25.846Z,1.00
2022-10-17T15:19:54.270Z,1.00
2022-10-17T15:22:22.307Z,1.00
2022-10-17T15:24:50.627Z,1.00
2022-10-17T15:27:20.091Z,1.00
2022-10-17T15:29:48.828Z,1.00
2022-10-17T15:32:17.632Z,1.00
2022-10-17T15:34:47.394Z,1.00
2022-10-17T15:37:20.730Z,1.00
2022-10-17T15:39:53.330Z,1.00
2022-10-17T15:42:22.979Z,1.00
2022-10-17T15:44:50.953Z,1.00
2022-10-17T15:47:25.300Z,1.00
2022-10-17T15:49:54.761Z,1.00
2022-10-17T15:52:22.773Z,1.00
2022-10-17T15:54:50.825Z,1.00
2022-10-17T15:57:22.117Z,1.00
2022-10-17T15:59:51.871Z,1.00
2022-10-17T16:02:21.718Z,4.30
2022-10-17T16:04:51.008Z,1.00
2022-10-17T16:07:21.392Z,1.00
2022-10-17T16:09:49.661Z,1.00
2022-10-17T16:12:19.721Z,1.00
2022-10-17T16:14:47.885Z,1.00
2022-10-17T16:17:17.104Z,1.00
2022-10-17T16:19:45.423Z,1.00
2022-10-17T16:22:32.444Z,1.00
2022-10-17T16:25:07.789Z,1.00
2022-10-17T16:27:36.321Z,1.40
2022-10-17T16:30:05.722Z,4.10
2022-10-17T16:32:33.809Z,17.40
2022-10-17T16:35:01.881Z,17.50
2022-10-17T16:37:31.257Z,15.90
2022-10-17T16:39:59.429Z,19.20
2022-10-17T16:42:27.565Z,22.60
2022-10-17T16:44:55.689Z,20.10
2022-10-17T16:47:23.707Z,31.40
2022-10-17T16:49:51.727Z,41.60
2022-10-17T16:52:19.771Z,37.90
2022-10-17T16:54:49.137Z,44.50
2022-10-17T16:57:17.312Z,45.40
2022-10-17T16:59:45.384Z,38.30
2022-10-17T17:02:16.356Z,45.10
2022-10-17T17:04:47.507Z,37.40
2022-10-17T17:07:17.852Z,43.90
2022-10-17T17:09:45.850Z,48.20
2022-10-17T17:12:15.342Z,42.30
2022-10-17T17:14:43.324Z,41.00
2022-10-17T17:17:19.475Z,57.80
2022-10-17T17:19:58.548Z,56.30
2022-10-17T17:22:26.609Z,54.70
2022-10-17T17:24:54.602Z,67.70
2022-10-17T17:27:25.085Z,72.80
2022-10-17T17:29:53.060Z,65.60
2022-10-17T17:32:21.000Z,86.90
2022-10-17T17:34:48.974Z,86.40
2022-10-17T17:37:17.059Z,81.20
2022-10-17T17:39:45.040Z,78.10
2022-10-17T17:42:13.053Z,91.60
2022-10-17T17:44:42.476Z,91.80
2022-10-17T17:47:10.487Z,82.50
2022-10-17T17:49:38.460Z,76.50
2022-10-17T17:52:06.550Z,82.40
2022-10-17T17:54:38.512Z,86.70
2022-10-17T17:57:08.904Z,77.80
2022-10-17T17:59:39.268Z,82.50
2022-10-17T18:02:08.885Z,82.10
2022-10-17T18:04:36.985Z,84.10
2022-10-17T18:07:13.312Z,87.20
2022-10-17T18:09:41.416Z,82.40
2022-10-17T18:12:09.599Z,73.90
2022-10-17T18:14:37.641Z,73.90
2022-10-17T18:17:05.608Z,77.70
2022-10-17T18:19:35.021Z,79.40
2022-10-17T18:22:03.225Z,82.50
2022-10-17T18:24:31.226Z,91.60
2022-10-17T18:26:59.958Z,92.70
2022-10-17T18:29:29.403Z,95.30
2022-10-17T18:31:57.481Z,95.10
2022-10-17T18:34:25.600Z,95.10
2022-10-17T18:36:54.961Z,93.10
2022-10-17T18:39:23.071Z,93.50
2022-10-17T18:41:51.089Z,96.20
2022-10-17T18:44:19.024Z,95.40
2022-10-17T18:46:47.166Z,96.80
2022-10-17T18:49:18.822Z,98.60
2022-10-17T18:51:47.367Z,98.00
2022-10-17T18:54:20.477Z,98.30
2022-10-17T18:56:48.597Z,99.60
2022-10-17T18:59:16.965Z,99.90
2022-10-17T19:01:44.987Z,99.90
2022-10-17T19:04:13.962Z,99.90
2022-10-17T19:06:42.768Z,99.90
2022-10-17T19:09:12.868Z,99.90
2022-10-17T19:11:43.057Z,99.70
2022-10-17T19:14:13.986Z,99.50
2022-10-17T19:16:44.555Z,97.70
2022-10-17T19:19:14.798Z,97.60
2022-10-17T19:21:43.171Z,96.00
2022-10-17T19:24:13.958Z,96.50
2022-10-17T19:26:44.643Z,96.70
2022-10-17T19:29:14.967Z,97.10
2022-10-17T19:31:43.351Z,96.40
2022-10-17T19:34:12.027Z,97.50
2022-10-17T19:36:40.389Z,98.50
2022-10-17T19:39:11.842Z,97.80
2022-10-17T19:41:41.385Z,98.90
2022-10-17T19:44:10.701Z,98.50
2022-10-17T19:46:39.170Z,97.90
2022-10-17T19:49:07.794Z,99.50
2022-10-17T19:51:35.842Z,98.90
2022-10-17T19:54:03.997Z,97.00
2022-10-17T19:56:36.683Z,96.60
2022-10-17T19:59:06.033Z,97.90
2022-10-17T20:01:38.598Z,96.90
2022-10-17T20:04:06.948Z,99.10
2022-10-17T20:06:35.500Z,99.90
2022-10-17T20:09:03.962Z,99.90
2022-10-17T20:11:32.179Z,99.00
2022-10-17T20:14:01.454Z,97.90
2022-10-17T20:16:31.245Z,96.80
2022-10-17T20:19:06.687Z,98.10
2022-10-17T20:21:36.656Z,99.90
2022-10-17T20:24:06.940Z,99.90
2022-10-17T20:26:39.080Z,99.90
2022-10-17T20:29:17.398Z,99.90
2022-10-17T20:31:46.875Z,99.90
2022-10-17T20:34:16.850Z,99.90
2022-10-17T20:36:45.003Z,99.90
2022-10-17T20:39:14.760Z,99.90
2022-10-17T20:41:43.309Z,99.90
2022-10-17T20:44:12.040Z,99.90
2022-10-17T20:46:45.241Z,99.90
2022-10-17T20:49:22.185Z,99.90
2022-10-17T20:51:50.241Z,99.90
2022-10-17T20:54:18.225Z,99.90
2022-10-17T20:56:46.239Z,99.90
2022-10-17T20:59:16.983Z,99.90
2022-10-17T21:01:46.102Z,99.90
2022-10-17T21:04:44.930Z,99.90
2022-10-17T21:07:04.134Z,99.90
2022-10-17T21:09:32.028Z,99.90
2022-10-17T21:14:36.284Z,99.90
2022-10-17T21:17:05.520Z,99.90
2022-10-17T21:19:33.683Z,99.90
2022-10-17T21:22:03.241Z,99.90
2022-10-17T21:24:31.506Z,99.60
2022-10-17T21:26:59.479Z,99.90
2022-10-17T21:29:27.598Z,99.90
2022-10-17T21:31:55.585Z,99.90
2022-10-17T21:34:25.515Z,99.90
2022-10-17T21:36:53.775Z,99.90
2022-10-17T21:39:24.692Z,99.90
2022-10-17T21:41:52.991Z,99.90
2022-10-17T21:44:22.544Z,99.90
2022-10-17T21:46:50.400Z,99.90
2022-10-17T21:49:20.396Z,99.90
2022-10-17T21:51:49.564Z,99.90
2022-10-17T21:54:18.997Z,99.90
2022-10-17T21:56:48.332Z,99.90
2022-10-17T21:59:16.859Z,99.90
2022-10-17T22:01:46.708Z,99.90
2022-10-17T22:04:16.347Z,99.90
2022-10-17T22:06:45.827Z,99.60
2022-10-17T22:09:16.260Z,99.10
2022-10-17T22:11:47.088Z,99.90
2022-10-17T22:14:18.401Z,99.90
2022-10-17T22:16:47.619Z,99.90
2022-10-17T22:19:17.393Z,99.90
2022-10-17T22:21:45.785Z,99.90
2022-10-17T22:24:15.973Z,99.90
2022-10-17T22:26:44.485Z,99.90
2022-10-17T22:29:12.907Z,99.90
2022-10-17T22:31:42.499Z,99.90
2022-10-17T22:34:11.469Z,99.90
2022-10-17T22:36:39.470Z,99.90
2022-10-17T22:39:07.425Z,99.90
2022-10-17T22:41:35.729Z,99.90
2022-10-17T22:44:04.311Z,99.90
2022-10-17T22:46:32.416Z,99.90
2022-10-17T22:49:02.027Z,99.90
2022-10-17T22:51:29.812Z,99.90
2022-10-17T22:53:58.068Z,99.90
2022-10-17T22:56:26.134Z,99.90
2022-10-17T22:58:54.778Z,99.90
2022-10-17T23:01:26.121Z,99.90
2022-10-17T23:03:54.218Z,99.90
2022-10-17T23:06:24.204Z,99.90
2022-10-17T23:08:52.423Z,99.90
2022-10-17T23:11:21.183Z,99.90
2022-10-17T23:13:49.360Z,99.90
2022-10-17T23:16:17.869Z,99.90
2022-10-17T23:18:45.893Z,99.90
2022-10-17T23:21:14.041Z,99.90
2022-10-17T23:23:43.408Z,99.90
2022-10-17T23:26:13.159Z,99.90
2022-10-17T23:28:42.037Z,99.90
2022-10-17T23:31:12.334Z,99.90
2022-10-17T23:33:41.386Z,99.90
2022-10-17T23:36:11.015Z,99.90
2022-10-17T23:38:39.194Z,99.90
2022-10-17T23:41:09.051Z,99.90
2022-10-17T23:43:37.304Z,99.90
2022-10-17T23:46:06.712Z,99.90
2022-10-17T23:48:35.202Z,99.90
2022-10-17T23:51:03.171Z,99.90
2022-10-17T23:53:31.647Z,99.90
2022-10-17T23:55:59.648Z,99.90
2022-10-17T23:58:29.160Z,99.90
